Peacham, VT (05862)

4:16 AM EDT on August 30, 2015 (GMT -0400)
Barnet School | | Change Station
CLOSE
Current Station
Personal Weather Station
Location: Barnet, VT
Elevation: 728 ft
Nearby Weather Stations

Elev 728 ft 44.31 °N, 72.08 °W | Updated 51 seconds ago

Overcast
Overcast
59.0 °F
Feels Like 59.0 °F
N
0.0
Wind Variable Wind from NE
Gusts 0.0 mph

Today
High -- | Low -- °F
--% Chance of Precip.
Yesterday
High -- | Low -- °F
Precip. -- in
6:08 AM 7:28 PM
Full, 100% visible
Pressure 30.09 in
Visibility 1.8 miles
Clouds
Dew Point 58 °F
Humidity 98%
Rainfall 0.00 in
Snow Depth Not available.
UV Not available.
Pollen 8.40 out of 12
Air Quality Not available.
Flu Activity Not available.
METAR KCDA 300755Z AUTO 24003KT 1 3/4SM BR VV007 15/14 A3009 RMK AO2 T01450141
Pressure 30.09 in
Visibility 1.8 miles
Clouds
Dew Point 58 °F
Humidity 98%
Rainfall 0.00 in
Snow Depth Not available.
UV Not available.
Pollen 8.40 out of 12
Air Quality Not available.
Flu Activity Not available.
METAR KCDA 300755Z AUTO 24003KT 1 3/4SM BR VV007 15/14 A3009 RMK AO2 T01450141

10-Day Weather Forecast

×

Almanac

Astronomy

Aug. 30, 2015 Rise Set
Actual Time
Civil Twilight
Nautical Twilight
Astronomical Twilight
Moon
Length of Visible Light
Length of Day
Tomorrow will be .
, % of the Moon is Illuminated

Today's Extremes

State Highs State Lows

Community

WunderPhotos

Upload Photos

1,850,909 photos uploaded!

WunderBlogs® & News

Nearby

Air Quality

  Air Quality AQ Index Pollutant
Not available.

Snow Depth

Station Depth Elevation

Earthquake Activity

City Distance Mag. Time & Date
Minimum magnitude displayed is 2.5.

Coastal Water Temperatures

Place Temperature

Stations

Nearby Weather Stations

Station Location Temp. Windchill Dew Point Humidity Wind Precip. Elev Updated Type